Time;durP1;ratioP1;P1;durP2;ratioP2;P2;SDS_P1;SDS_P2;PMS_P1;PMS_P2;Temp;Humidity;BMP_temperature;BMP_pressure;BME280_temperature;BME280_humidity;BME280_pressure;Samples;Min_cycle;Max_cycle;Signal;HPM_P1;HPM_P2
2022/07/03 00:00:41;;;;;;;3.83;3.53;;;17.30;99.90;;;;;;5088328;28;20039;-78
2022/07/03 00:03:06;;;;;;;5.22;3.88;;;17.30;99.90;;;;;;5084981;28;20016;-77
2022/07/03 00:05:32;;;;;;;3.97;3.58;;;17.30;99.90;;;;;;5095655;28;20036;-77
2022/07/03 00:07:58;;;;;;;4.10;3.70;;;17.30;99.90;;;;;;5082067;28;20085;-78
2022/07/03 00:10:23;;;;;;;4.30;3.80;;;16.60;99.90;;;;;;5102055;28;20069;-78
2022/07/03 00:12:49;;;;;;;4.32;3.95;;;17.20;99.90;;;;;;5093064;28;20031;-77
2022/07/03 00:15:14;;;;;;;4.15;3.70;;;17.20;99.90;;;;;;5092681;28;20324;-77
2022/07/03 00:17:40;;;;;;;3.80;3.50;;;17.20;99.90;;;;;;5092108;28;20119;-76
2022/07/03 00:20:06;;;;;;;4.05;3.70;;;17.10;99.90;;;;;;5093123;28;20099;-77
2022/07/03 00:22:35;;;;;;;4.28;3.92;;;17.20;99.90;;;;;;5092408;28;20067;-76
2022/07/03 00:25:04;;;;;;;4.80;4.38;;;17.20;99.90;;;;;;5078744;28;20024;-77
2022/07/03 00:27:33;;;;;;;6.32;3.70;;;17.20;99.90;;;;;;5093093;28;20016;-77
2022/07/03 00:30:00;;;;;;;4.30;3.90;;;17.10;99.90;;;;;;5092159;28;20032;-77
2022/07/03 00:32:26;;;;;;;4.25;3.83;;;17.10;99.90;;;;;;5092514;28;20020;-77
2022/07/03 00:34:54;;;;;;;3.97;3.60;;;17.10;99.90;;;;;;5092376;28;20349;-78
2022/07/03 00:37:21;;;;;;;3.83;3.50;;;17.10;99.90;;;;;;5092417;28;20131;-76
2022/07/03 00:39:50;;;;;;;4.70;3.97;;;17.10;99.90;;;;;;5092077;28;20024;-78
2022/07/03 00:42:16;;;;;;;7.20;3.88;;;17.10;99.90;;;;;;5092796;28;20024;-78
2022/07/03 00:44:46;;;;;;;4.63;3.97;;;17.00;99.90;;;;;;5092439;28;20031;-77
2022/07/03 00:47:13;;;;;;;5.32;4.20;;;17.10;99.90;;;;;;5087602;28;20017;-77
2022/07/03 00:49:39;;;;;;;5.35;4.00;;;17.10;99.90;;;;;;5081792;28;20036;-79
2022/07/03 00:52:08;;;;;;;4.82;4.43;;;17.00;99.90;;;;;;5092043;28;20028;-78
2022/07/03 00:54:35;;;;;;;6.47;3.97;;;17.00;99.90;;;;;;5091661;28;20463;-77
2022/07/03 00:57:02;;;;;;;5.43;4.55;;;17.10;99.90;;;;;;5091806;28;20042;-77
2022/07/03 00:59:28;;;;;;;5.65;4.63;;;17.10;99.90;;;;;;5092461;28;20119;-78
2022/07/03 01:02:04;;;;;;;4.80;4.32;;;17.10;99.90;;;;;;5091319;28;20511;-77
2022/07/03 01:04:46;;;;;;;4.40;4.00;;;17.10;99.90;;;;;;5092810;28;20111;-77
2022/07/03 01:07:25;;;;;;;6.10;4.55;;;17.10;99.90;;;;;;5091045;28;20123;-77
2022/07/03 01:10:00;;;;;;;6.20;4.68;;;17.00;99.90;;;;;;5091898;28;20063;-78
2022/07/03 01:12:50;;;;;;;5.10;4.60;;;17.00;99.90;;;;;;5092120;28;20028;-77
2022/07/03 01:15:25;;;;;;;5.75;5.10;;;16.90;99.90;;;;;;5091626;28;20475;-78
2022/07/03 01:18:24;;;;;;;6.13;4.82;;;16.90;99.90;;;;;;5091978;28;20043;-77
2022/07/03 01:21:00;;;;;;;5.30;3.92;;;16.80;99.90;;;;;;5072515;28;20048;-77
2022/07/03 01:23:47;;;;;;;3.70;3.38;;;16.80;99.90;;;;;;5097754;28;20028;-78
2022/07/03 01:26:15;;;;;;;3.50;2.90;;;16.80;99.90;;;;;;5098838;28;20479;-78
2022/07/03 01:28:45;;;;;;;3.72;3.42;;;16.90;99.90;;;;;;5089073;28;20039;-77
2022/07/03 01:31:18;;;;;;;4.22;3.13;;;16.90;99.90;;;;;;5078638;28;20017;-77
2022/07/03 01:33:46;;;;;;;2.92;2.63;;;17.00;99.90;;;;;;5082765;28;20109;-76
2022/07/03 01:36:15;;;;;;;3.60;2.50;;;17.00;99.90;;;;;;5094078;28;20028;-77
2022/07/03 01:38:41;;;;;;;2.95;2.03;;;17.10;99.90;;;;;;5089509;28;20024;-78
2022/07/03 01:41:09;;;;;;;2.28;2.08;;;17.10;99.90;;;;;;5091236;28;20024;-77
2022/07/03 01:43:47;;;;;;;3.03;2.00;;;17.20;99.90;;;;;;5098589;28;20020;-77
2022/07/03 01:46:14;;;;;;;2.80;2.15;;;17.20;99.90;;;;;;5079222;28;20120;-78
2022/07/03 01:48:42;;;;;;;3.40;2.28;;;17.20;99.90;;;;;;5092188;28;20024;-78
2022/07/03 01:51:12;;;;;;;6.68;1.80;;;17.20;99.90;;;;;;5098040;28;20024;-77
2022/07/03 01:53:46;;;;;;;3.28;1.70;;;17.30;99.90;;;;;;5099503;28;20031;-78
2022/07/03 01:56:11;;;;;;;2.63;1.88;;;17.30;99.90;;;;;;5097759;28;20115;-78
2022/07/03 01:58:37;;;;;;;2.22;1.70;;;17.30;99.90;;;;;;5098781;28;20441;-76
2022/07/03 02:01:08;;;;;;;2.13;1.58;;;17.30;99.90;;;;;;5101015;28;20024;-78
2022/07/03 02:03:34;;;;;;;;;;;17.40;99.90;;;;;;5097317;28;20040;-77
2022/07/03 02:06:03;;;;;;;2.45;1.60;;;17.40;99.90;;;;;;5093812;28;19916;-77
2022/07/03 02:08:56;;;;;;;1.58;1.45;;;17.30;99.90;;;;;;5098885;28;20031;-76
2022/07/03 02:11:27;;;;;;;1.40;1.30;;;17.40;99.90;;;;;;5099935;28;20012;-77
2022/07/03 02:14:17;;;;;;;2.67;1.35;;;17.40;99.90;;;;;;5102778;28;20063;-77
2022/07/03 02:16:54;;;;;;;3.00;1.88;;;17.30;99.90;;;;;;5102651;28;20035;-79
2022/07/03 02:19:27;;;;;;;2.28;1.48;;;17.30;99.90;;;;;;5104564;28;20027;-77
2022/07/03 02:21:56;;;;;;;2.03;1.63;;;17.30;99.90;;;;;;5084498;28;20443;-77
2022/07/03 02:24:27;;;;;;;3.83;1.30;;;17.40;99.90;;;;;;5098235;28;20030;-76
2022/07/03 02:27:13;;;;;;;2.65;1.42;;;17.40;99.90;;;;;;5098516;28;20020;-78
2022/07/03 02:30:06;;;;;;;2.55;1.25;;;17.50;99.90;;;;;;5098717;28;20036;-79
2022/07/03 02:32:49;;;;;;;6.45;1.83;;;17.40;99.90;;;;;;5094547;28;20458;-78
2022/07/03 02:35:24;;;;;;;4.80;2.33;;;17.50;99.90;;;;;;5094025;28;20444;-78
2022/07/03 02:38:15;;;;;;;2.22;1.73;;;17.40;99.90;;;;;;5084519;28;20488;-77
2022/07/03 02:40:57;;;;;;;2.85;1.70;;;17.40;99.90;;;;;;5095024;28;20114;-78
2022/07/03 02:43:38;;;;;;;5.57;1.90;;;17.30;99.90;;;;;;5094660;28;20081;-77
2022/07/03 02:49:13;;;;;;;3.53;1.58;;;17.20;99.90;;;;;;5094489;28;20383;-77
2022/07/03 02:51:44;;;;;;;3.33;1.75;;;17.10;99.90;;;;;;5094547;28;20028;-77
2022/07/03 02:54:14;;;;;;;1.38;1.27;;;17.10;99.90;;;;;;5093469;28;20024;-76
2022/07/03 02:57:06;;;;;;;1.55;1.17;;;17.10;99.90;;;;;;5094566;28;20429;-77
2022/07/03 02:59:54;;;;;;;4.30;1.00;;;17.10;99.90;;;;;;5093894;28;20029;-77
2022/07/03 03:02:38;;;;;;;1.90;0.90;;;17.10;99.90;;;;;;5094484;28;20035;-77
2022/07/03 03:05:15;;;;;;;6.80;1.20;;;17.10;99.90;;;;;;5093925;28;20055;-77
2022/07/03 03:07:53;;;;;;;2.22;0.93;;;17.10;99.90;;;;;;5093590;28;20123;-77
2022/07/03 03:10:19;;;;;;;3.70;1.17;;;17.10;99.90;;;;;;5094213;28;20036;-77
2022/07/03 03:12:51;;;;;;;2.42;1.00;;;17.10;99.90;;;;;;5094143;28;20073;-76
2022/07/03 03:15:20;;;;;;;1.50;0.90;;;17.00;99.90;;;;;;5093682;28;20034;-77
2022/07/03 03:17:51;;;;;;;2.45;1.27;;;17.00;99.90;;;;;;5094199;28;20032;-77
2022/07/03 03:20:20;;;;;;;2.08;1.10;;;16.90;99.90;;;;;;5094024;28;20504;-78
2022/07/03 03:23:18;;;;;;;3.35;1.08;;;17.00;99.90;;;;;;5094257;28;20058;-78
2022/07/03 03:25:44;;;;;;;2.30;1.02;;;17.00;99.90;;;;;;5081814;28;20027;-77
2022/07/03 03:28:11;;;;;;;3.25;1.58;;;17.00;99.90;;;;;;5092291;28;20050;-78
2022/07/03 03:30:37;;;;;;;2.38;1.27;;;17.00;99.90;;;;;;5094274;28;20020;-77
2022/07/03 03:33:09;;;;;;;2.95;1.00;;;17.10;99.90;;;;;;5093651;28;20404;-75
2022/07/03 03:35:36;;;;;;;2.22;1.08;;;17.10;99.90;;;;;;5093565;28;20032;-77
2022/07/03 03:38:02;;;;;;;4.88;1.33;;;17.10;99.90;;;;;;5081284;28;20016;-77
2022/07/03 03:40:28;;;;;;;4.95;1.35;;;17.20;99.90;;;;;;5091969;28;20028;-78
2022/07/03 03:42:53;;;;;;;6.05;1.20;;;17.20;99.90;;;;;;5093328;28;20107;-77
2022/07/03 03:45:19;;;;;;;7.57;1.20;;;17.30;99.90;;;;;;5093690;28;20024;-77
2022/07/03 03:47:45;;;;;;;2.35;1.40;;;17.20;99.90;;;;;;5085898;28;20379;-77
2022/07/03 03:50:11;;;;;;;2.97;1.23;;;17.20;99.90;;;;;;5086850;28;20102;-76
2022/07/03 03:52:36;;;;;;;3.45;0.93;;;17.30;99.90;;;;;;5079795;28;20020;-77
2022/07/03 03:55:02;;;;;;;2.83;1.30;;;17.20;99.90;;;;;;5093535;28;20030;-78
2022/07/03 03:57:28;;;;;;;5.40;1.38;;;17.20;99.90;;;;;;5092880;28;20142;-76
2022/07/03 03:59:55;;;;;;;2.55;1.40;;;17.20;99.90;;;;;;5093538;28;20085;-77
2022/07/03 04:02:20;;;;;;;6.22;1.42;;;17.20;99.90;;;;;;5093859;28;20070;-78
2022/07/03 04:04:46;;;;;;;4.88;1.38;;;17.20;99.90;;;;;;5093227;28;20043;-77
2022/07/03 04:07:12;;;;;;;3.42;0.98;;;17.20;99.90;;;;;;5093473;28;20047;-77
2022/07/03 04:09:37;;;;;;;6.05;1.00;;;17.20;99.90;;;;;;5095350;28;20016;-78
2022/07/03 04:12:04;;;;;;;3.10;0.90;;;17.20;99.90;;;;;;5090847;28;20020;-76
2022/07/03 04:14:29;;;;;;;3.28;1.05;;;17.20;99.90;;;;;;5089280;28;20055;-77
2022/07/03 04:16:55;;;;;;;4.63;1.10;;;17.20;99.90;;;;;;5083094;28;20099;-77
2022/07/03 04:19:22;;;;;;;4.05;1.67;;;17.30;99.90;;;;;;5094145;28;20479;-77
2022/07/03 04:21:49;;;;;;;4.25;1.00;;;17.40;99.90;;;;;;5102506;28;20024;-77
2022/07/03 04:24:15;;;;;;;4.10;1.10;;;17.30;99.90;;;;;;5096547;28;20052;-78
2022/07/03 04:26:40;;;;;;;2.20;0.93;;;17.40;99.90;;;;;;5104214;28;20412;-77
2022/07/03 04:29:07;;;;;;;1.40;0.82;;;17.40;99.90;;;;;;5094304;28;20498;-77
2022/07/03 04:31:33;;;;;;;5.28;1.55;;;17.40;99.90;;;;;;5092434;28;20016;-77
2022/07/03 04:33:58;;;;;;;4.68;1.20;;;17.40;99.90;;;;;;5081522;28;20020;-78
2022/07/03 04:36:24;;;;;;;4.68;1.20;;;17.40;99.90;;;;;;5074915;28;20097;-78
2022/07/03 04:38:49;;;;;;;2.25;1.02;;;17.40;99.90;;;;;;5090703;28;20028;-77
2022/07/03 04:41:15;;;;;;;4.82;1.08;;;17.40;99.90;;;;;;5092943;28;20102;-77
2022/07/03 04:43:41;;;;;;;3.75;1.00;;;17.50;99.90;;;;;;5092468;28;20420;-77
2022/07/03 04:46:06;;;;;;;4.55;1.35;;;17.60;99.90;;;;;;5092029;28;20077;-78
2022/07/03 04:48:32;;;;;;;5.95;1.20;;;17.50;99.90;;;;;;5092537;28;20035;-77
2022/07/03 04:50:58;;;;;;;5.63;1.30;;;17.70;99.90;;;;;;5091643;28;20020;-77
2022/07/03 04:53:24;;;;;;;2.53;0.98;;;17.70;99.90;;;;;;5079027;28;20468;-78
2022/07/03 04:55:49;;;;;;;4.15;1.20;;;17.70;99.90;;;;;;5091642;28;20039;-77
2022/07/03 04:58:16;;;;;;;6.07;1.20;;;17.80;99.90;;;;;;5092025;28;20459;-78
2022/07/03 05:00:43;;;;;;;2.33;1.00;;;17.90;99.90;;;;;;5091426;28;20089;-77
2022/07/03 05:03:09;;;;;;;3.88;0.95;;;17.90;99.90;;;;;;5091934;28;20107;-78
2022/07/03 05:05:35;;;;;;;6.22;1.13;;;18.00;99.90;;;;;;5074868;28;20128;-78
2022/07/03 05:08:00;;;;;;;5.90;1.25;;;18.00;99.90;;;;;;5085273;28;20032;-78
2022/07/03 05:10:26;;;;;;;6.32;2.20;;;18.00;99.90;;;;;;5082496;28;20518;-78
2022/07/03 05:12:52;;;;;;;5.30;1.10;;;17.90;99.90;;;;;;5086360;28;20035;-79
2022/07/03 05:15:18;;;;;;;3.08;1.20;;;17.90;99.90;;;;;;5089622;28;20051;-77
2022/07/03 05:17:44;;;;;;;4.47;1.23;;;18.00;99.90;;;;;;5086665;28;20052;-78
2022/07/03 05:20:25;;;;;;;3.83;1.30;;;18.10;99.90;;;;;;5077926;28;20099;-78
2022/07/03 05:22:52;;;;;;;4.30;1.38;;;18.30;99.90;;;;;;5082243;28;20511;-78
2022/07/03 05:25:18;;;;;;;5.53;1.23;;;18.40;99.90;;;;;;5084773;28;20052;-78
2022/07/03 05:27:44;;;;;;;5.40;1.40;;;18.50;99.90;;;;;;5083972;28;20032;-77
2022/07/03 05:30:10;;;;;;;5.78;1.10;;;18.60;99.90;;;;;;5085419;28;20019;-77
2022/07/03 05:32:36;;;;;;;3.38;1.38;;;18.70;99.90;;;;;;5087871;28;20123;-78
2022/07/03 05:35:02;;;;;;;4.68;1.30;;;18.60;99.90;;;;;;5084549;28;20103;-78
2022/07/03 05:37:27;;;;;;;4.60;1.60;;;18.70;99.90;;;;;;5080836;28;20043;-77
2022/07/03 05:39:53;;;;;;;4.03;1.70;;;18.80;99.90;;;;;;5080148;28;20024;-76
2022/07/03 05:42:19;;;;;;;7.07;1.65;;;18.70;99.90;;;;;;5070681;28;20379;-76
2022/07/03 05:44:45;;;;;;;9.35;1.98;;;18.70;99.90;;;;;;5071004;28;20024;-76
2022/07/03 05:47:10;;;;;;;6.00;1.38;;;18.70;99.90;;;;;;5076162;28;20020;-78
2022/07/03 05:49:36;;;;;;;7.80;2.10;;;18.70;99.90;;;;;;5076977;28;20099;-77
2022/07/03 05:52:01;;;;;;;9.07;2.00;;;18.60;99.90;;;;;;5072387;28;20024;-78
2022/07/03 05:54:27;;;;;;;7.15;1.92;;;18.60;99.90;;;;;;5070831;28;20070;-76
2022/07/03 05:56:53;;;;;;;12.77;2.15;;;18.60;99.90;;;;;;5069747;28;20071;-77
2022/07/03 05:59:18;;;;;;;3.25;1.67;;;18.60;99.90;;;;;;5071039;28;20024;-78
2022/07/03 06:01:44;;;;;;;2.90;1.50;;;18.70;99.90;;;;;;5070617;28;20426;-78
2022/07/03 06:04:09;;;;;;;5.13;1.85;;;18.80;99.90;;;;;;5070330;28;20481;-76
2022/07/03 06:06:35;;;;;;;4.57;1.73;;;18.90;99.90;;;;;;5071918;28;20044;-78
2022/07/03 06:09:00;;;;;;;6.25;1.60;;;18.90;99.90;;;;;;5073979;28;20028;-78
2022/07/03 06:11:26;;;;;;;8.68;1.90;;;19.00;99.90;;;;;;5074714;28;20025;-77
2022/07/03 06:13:52;;;;;;;5.65;2.05;;;19.00;99.90;;;;;;5075542;28;20021;-76
2022/07/03 06:16:18;;;;;;;6.10;2.00;;;18.90;99.90;;;;;;5074466;28;20032;-77
2022/07/03 06:18:44;;;;;;;5.35;2.20;;;18.90;99.90;;;;;;5090310;28;20040;-78
2022/07/03 06:21:09;;;;;;;6.65;1.83;;;18.80;99.90;;;;;;5084864;28;20024;-77
2022/07/03 06:23:35;;;;;;;7.53;1.80;;;18.80;99.90;;;;;;5078424;28;20042;-79
2022/07/03 06:26:01;;;;;;;6.68;2.00;;;18.70;99.90;;;;;;5088481;28;20032;-77
2022/07/03 06:28:26;;;;;;;4.72;1.75;;;18.70;99.90;;;;;;5087393;28;20016;-78
2022/07/03 06:30:52;;;;;;;5.65;1.90;;;18.60;99.90;;;;;;5079751;28;20361;-76
2022/07/03 06:33:17;;;;;;;5.45;1.90;;;18.50;99.90;;;;;;5077507;28;20085;-79
2022/07/03 06:35:43;;;;;;;5.78;1.70;;;18.60;99.90;;;;;;5082831;28;20032;-78
2022/07/03 06:38:09;;;;;;;6.10;2.47;;;18.50;99.90;;;;;;5073746;28;20017;-77
2022/07/03 06:40:34;;;;;;;9.10;2.63;;;18.50;99.90;;;;;;5087189;28;20016;-78
2022/07/03 06:43:00;;;;;;;7.85;2.13;;;18.50;99.90;;;;;;5076269;28;20510;-76
2022/07/03 06:45:25;;;;;;;3.28;1.60;;;18.60;99.90;;;;;;5073875;28;20024;-79
2022/07/03 06:47:51;;;;;;;6.55;1.73;;;18.60;99.90;;;;;;5083428;28;20462;-73
2022/07/03 06:50:17;;;;;;;3.55;1.60;;;18.60;99.90;;;;;;5075678;28;20451;-73
2022/07/03 06:52:42;;;;;;;5.22;1.95;;;18.60;99.90;;;;;;5073815;28;20025;-74
2022/07/03 06:55:08;;;;;;;6.00;1.77;;;18.70;99.90;;;;;;5073792;28;20056;-74
2022/07/03 06:57:34;;;;;;;5.57;1.65;;;18.70;99.90;;;;;;5074118;28;20024;-73
2022/07/03 06:59:59;;;;;;;4.43;1.70;;;18.80;99.90;;;;;;5072590;28;20039;-73
2022/07/03 07:02:25;;;;;;;4.93;1.73;;;18.80;99.90;;;;;;5078331;28;20033;-74
2022/07/03 07:04:50;;;;;;;6.07;1.65;;;18.80;99.90;;;;;;5074624;28;20077;-74
2022/07/03 07:07:16;;;;;;;7.25;2.25;;;18.90;99.90;;;;;;5091401;28;20040;-74
2022/07/03 07:09:42;;;;;;;4.38;1.27;;;18.90;99.90;;;;;;5085977;28;20021;-75
2022/07/03 07:12:07;;;;;;;4.75;1.60;;;19.00;99.90;;;;;;5077181;28;20072;-74
2022/07/03 07:14:33;;;;;;;4.63;1.85;;;19.10;99.90;;;;;;5078087;28;20039;-74
2022/07/03 07:16:59;;;;;;;7.75;1.88;;;19.20;99.90;;;;;;5080961;28;20043;-74
2022/07/03 07:19:24;;;;;;;4.18;1.30;;;19.20;99.90;;;;;;5084615;28;20040;-74
2022/07/03 07:21:50;;;;;;;5.70;1.60;;;19.30;99.90;;;;;;5087799;28;20169;-74
2022/07/03 07:24:15;;;;;;;2.95;1.48;;;19.40;99.90;;;;;;5091554;28;20019;-76
2022/07/03 07:26:41;;;;;;;4.63;1.58;;;19.60;99.90;;;;;;5081542;28;20367;-74
2022/07/03 07:29:06;;;;;;;4.55;1.85;;;19.80;99.90;;;;;;5088841;28;20375;-74
2022/07/03 07:31:32;;;;;;;5.90;2.10;;;20.10;99.90;;;;;;5080824;28;20555;-74
2022/07/03 07:33:57;;;;;;;4.95;1.50;;;20.20;99.90;;;;;;5084082;28;20036;-74
2022/07/03 07:36:23;;;;;;;4.97;2.45;;;20.20;99.90;;;;;;5080539;28;20038;-73
2022/07/03 07:38:49;;;;;;;3.97;1.67;;;20.20;99.90;;;;;;5086007;28;20118;-74
2022/07/03 07:41:14;;;;;;;4.78;1.40;;;20.30;99.90;;;;;;5088939;28;20467;-74
2022/07/03 07:43:40;;;;;;;4.18;1.42;;;20.30;99.90;;;;;;5087702;28;20024;-74
2022/07/03 07:46:05;;;;;;;3.67;1.63;;;20.30;99.90;;;;;;5090553;28;20374;-73
2022/07/03 07:48:33;;;;;;;4.82;1.92;;;20.40;99.90;;;;;;5082254;28;20070;-74
2022/07/03 07:50:59;;;;;;;2.53;1.10;;;20.50;99.90;;;;;;5073077;28;20114;-75
2022/07/03 07:53:24;;;;;;;4.93;1.67;;;20.70;99.90;;;;;;5072725;28;20826;-75
2022/07/03 07:55:50;;;;;;;6.45;2.15;;;20.80;99.90;;;;;;5091471;28;20086;-74
2022/07/03 07:58:15;;;;;;;3.25;1.90;;;20.90;99.90;;;;;;5088800;28;20044;-76
2022/07/03 08:05:35;;;;;;;3.50;1.48;;;21.00;99.90;;;;;;5086514;28;20020;-75
2022/07/03 08:06:11;;;;;;;7.65;2.13;;;21.20;99.90;;;;;;5084666;28;20059;-75
2022/07/03 08:08:36;;;;;;;2.85;1.73;;;21.30;99.90;;;;;;5083582;28;20025;-74
2022/07/03 08:11:02;;;;;;;3.13;1.73;;;21.50;99.90;;;;;;5078982;28;20077;-76
2022/07/03 08:13:28;;;;;;;3.40;1.70;;;21.50;99.90;;;;;;5071815;28;20078;-76
2022/07/03 08:15:53;;;;;;;1.80;1.48;;;21.60;99.90;;;;;;5070682;28;20028;-76
2022/07/03 08:18:19;;;;;;;2.20;1.65;;;21.70;99.90;;;;;;5073020;28;20357;-75
2022/07/03 08:20:44;;;;;;;6.93;1.92;;;21.90;99.90;;;;;;5075015;28;20055;-75
2022/07/03 08:23:10;;;;;;;6.32;1.95;;;22.00;99.90;;;;;;5075276;28;20059;-75
2022/07/03 08:25:36;;;;;;;7.15;2.25;;;22.00;99.90;;;;;;5082426;28;20626;-76
2022/07/03 08:28:02;;;;;;;3.05;1.73;;;22.00;99.90;;;;;;5078487;28;20036;-76
2022/07/03 08:30:28;;;;;;;3.72;1.95;;;22.00;99.90;;;;;;5085900;28;20069;-75
2022/07/03 08:32:57;;;;;;;4.70;1.50;;;22.00;99.90;;;;;;5080579;28;20035;-74
2022/07/03 08:35:23;;;;;;;2.42;1.00;;;22.10;99.90;;;;;;5090611;28;20032;-73
2022/07/03 08:37:50;;;;;;;3.03;1.52;;;22.10;99.90;;;;;;5083518;28;20105;-75
2022/07/03 08:40:18;;;;;;;4.40;1.23;;;22.20;99.90;;;;;;5093968;28;20489;-74
2022/07/03 08:42:46;;;;;;;2.35;1.40;;;22.20;99.90;;;;;;5101112;28;20019;-76
2022/07/03 08:45:17;;;;;;;3.70;1.60;;;22.30;99.90;;;;;;5088923;28;20077;-75
2022/07/03 08:47:44;;;;;;;6.68;1.35;;;22.40;99.90;;;;;;5083286;28;20055;-75
2022/07/03 08:50:12;;;;;;;4.72;1.70;;;22.40;99.90;;;;;;5071180;28;20024;-76
2022/07/03 08:52:38;;;;;;;3.40;1.20;;;22.30;99.90;;;;;;5070460;28;20026;-76
2022/07/03 08:55:06;;;;;;;5.60;1.98;;;21.80;99.90;;;;;;5070329;28;20440;-74
2022/07/03 08:57:35;;;;;;;5.70;1.45;;;22.40;99.90;;;;;;5070548;28;20025;-76
2022/07/03 09:00:06;;;;;;;3.30;1.55;;;22.40;99.90;;;;;;5078527;28;20025;-75
2022/07/03 09:02:32;;;;;;;3.25;1.40;;;22.50;99.90;;;;;;5071130;28;20048;-76
2022/07/03 09:05:01;;;;;;;5.45;1.85;;;22.50;99.90;;;;;;5069813;28;20040;-76
2022/07/03 09:07:29;;;;;;;2.03;1.30;;;22.60;99.90;;;;;;5071213;28;20376;-76
2022/07/03 09:09:55;;;;;;;2.75;1.30;;;22.70;99.90;;;;;;5071165;28;20400;-76
2022/07/03 09:12:22;;;;;;;1.75;1.20;;;22.80;99.90;;;;;;5071018;28;20025;-75
2022/07/03 09:14:47;;;;;;;5.13;1.60;;;22.80;99.90;;;;;;5072042;28;20020;-74
2022/07/03 09:17:13;;;;;;;9.02;1.30;;;23.00;99.90;;;;;;5071829;28;20032;-74
2022/07/03 09:19:42;;;;;;;3.10;1.25;;;23.00;99.90;;;;;;5070707;28;20020;-75
2022/07/03 09:22:24;;;;;;;3.83;1.27;;;23.10;99.90;;;;;;5071898;28;20438;-76
2022/07/03 09:25:11;;;;;;;4.95;1.83;;;23.30;99.90;;;;;;5071577;28;20047;-75
2022/07/03 09:27:38;;;;;;;5.15;1.55;;;23.60;99.90;;;;;;5071226;28;20369;-75
2022/07/03 09:30:09;;;;;;;3.72;1.50;;;23.90;99.90;;;;;;5071561;28;20448;-76
2022/07/03 09:32:38;;;;;;;3.15;1.20;;;24.10;99.90;;;;;;5072982;28;20080;-76
2022/07/03 09:35:20;;;;;;;2.47;1.30;;;24.10;99.90;;;;;;5080577;28;20020;-75
2022/07/03 09:38:00;;;;;;;3.00;1.38;;;24.10;99.90;;;;;;5071861;28;20119;-76
2022/07/03 09:40:54;;;;;;;4.40;1.25;;;24.30;99.90;;;;;;5085066;28;20121;-75
2022/07/03 09:43:29;;;;;;;4.80;1.05;;;24.40;99.40;;;;;;5087143;28;20073;-75
2022/07/03 09:45:59;;;;;;;4.10;1.45;;;24.30;99.50;;;;;;5083577;28;20028;-76
2022/07/03 09:48:34;;;;;;;4.65;1.42;;;24.20;99.50;;;;;;5095418;28;20032;-73
2022/07/03 09:51:23;;;;;;;12.70;1.48;;;24.20;99.70;;;;;;5082372;28;20024;-75
2022/07/03 09:53:54;;;;;;;2.97;1.35;;;24.20;99.90;;;;;;5095931;28;20028;-76
2022/07/03 09:56:22;;;;;;;4.25;1.50;;;24.30;99.50;;;;;;5095242;28;20060;-74
2022/07/03 09:59:12;;;;;;;2.50;1.25;;;24.20;98.90;;;;;;5095572;28;20400;-75
2022/07/03 10:01:43;;;;;;;4.82;1.30;;;24.10;99.20;;;;;;5094940;28;20494;-75
2022/07/03 10:04:22;;;;;;;2.45;1.10;;;23.90;99.40;;;;;;5095439;28;20074;-74
2022/07/03 10:06:59;;;;;;;2.17;1.08;;;23.30;99.90;;;;;;5095347;28;20089;-76
2022/07/03 10:09:32;;;;;;;1.58;1.20;;;22.70;99.90;;;;;;5094399;28;20048;-74
2022/07/03 10:12:00;;;;;;;4.88;1.25;;;22.30;99.90;;;;;;5095472;28;20039;-75
2022/07/03 10:14:31;;;;;;;2.28;1.10;;;21.70;99.90;;;;;;5095674;28;20023;-75
2022/07/03 10:16:58;;;;;;;2.45;1.00;;;21.30;99.90;;;;;;5094164;28;20040;-76
2022/07/03 10:19:26;;;;;;;1.67;1.00;;;21.10;99.90;;;;;;5095124;28;20475;-76
2022/07/03 10:21:55;;;;;;;2.17;1.38;;;21.00;99.90;;;;;;5095024;28;20024;-75
2022/07/03 10:24:23;;;;;;;2.15;1.30;;;21.00;99.90;;;;;;5094478;28;20024;-75
2022/07/03 10:26:50;;;;;;;3.67;1.40;;;20.90;99.90;;;;;;5095212;28;20024;-75
2022/07/03 10:29:17;;;;;;;3.53;1.48;;;21.00;99.90;;;;;;5095081;28;20020;-75
2022/07/03 10:31:49;;;;;;;4.72;1.77;;;20.90;99.90;;;;;;5094673;28;20112;-75
2022/07/03 10:34:23;;;;;;;3.28;1.67;;;20.90;99.90;;;;;;5094776;28;20157;-74
2022/07/03 10:37:00;;;;;;;4.10;1.50;;;21.00;99.90;;;;;;5091650;28;20040;-75
2022/07/03 10:44:45;;;;;;;6.25;2.00;;;21.20;99.90;;;;;;5084697;28;20139;-74
2022/07/03 10:45:29;;;;;;;2.92;2.00;;;21.50;99.90;;;;;;5094604;28;20506;-76
2022/07/03 10:47:55;;;;;;;5.40;2.55;;;21.60;99.90;;;;;;5094821;28;20048;-75
2022/07/03 10:50:22;;;;;;;6.78;1.88;;;21.80;99.90;;;;;;5094595;28;20043;-75
2022/07/03 10:52:49;;;;;;;4.93;1.73;;;21.90;99.90;;;;;;5094029;28;20043;-74
2022/07/03 10:55:16;;;;;;;3.35;1.58;;;22.00;99.90;;;;;;5093928;28;20077;-74
2022/07/03 10:57:43;;;;;;;2.67;1.20;;;22.10;99.90;;;;;;5093868;28;20028;-74
2022/07/03 11:00:18;;;;;;;3.13;1.60;;;22.20;99.90;;;;;;5094839;28;20103;-75
2022/07/03 11:02:51;;;;;;;2.60;1.10;;;22.50;99.90;;;;;;5094666;28;20491;-75
2022/07/03 11:05:25;;;;;;;1.25;0.80;;;22.90;99.90;;;;;;5095704;28;20495;-75
2022/07/03 11:07:50;;;;;;;1.90;0.90;;;23.30;99.10;;;;;;5094826;28;20099;-74
2022/07/03 11:10:16;;;;;;;2.53;1.27;;;23.60;98.10;;;;;;5094923;28;20502;-75
2022/07/03 11:13:04;;;;;;;0.85;0.80;;;23.80;97.40;;;;;;5094001;28;20091;-75
2022/07/03 11:15:41;;;;;;;3.13;1.02;;;23.70;96.50;;;;;;5094563;28;20028;-76
2022/07/03 11:18:13;;;;;;;4.40;1.10;;;23.30;97.10;;;;;;5094226;28;20032;-75
2022/07/03 11:20:41;;;;;;;1.23;0.68;;;23.00;96.90;;;;;;5093520;28;20024;-75
2022/07/03 11:23:13;;;;;;;3.65;1.10;;;22.70;97.70;;;;;;5094229;28;20035;-75
2022/07/03 11:25:45;;;;;;;2.35;1.35;;;22.40;98.10;;;;;;5093191;28;20055;-75
2022/07/03 11:28:32;;;;;;;6.05;1.50;;;22.10;99.90;;;;;;5093792;28;20020;-74
2022/07/03 11:33:54;;;;;;;4.22;1.75;;;21.50;99.90;;;;;;5081145;28;20352;-74
2022/07/03 11:36:31;;;;;;;4.88;1.70;;;21.10;99.90;;;;;;5094742;28;20044;-75
2022/07/03 11:39:00;;;;;;;2.53;1.60;;;20.90;99.90;;;;;;5079572;28;20024;-75
2022/07/03 11:41:40;;;;;;;2.85;1.50;;;20.70;99.90;;;;;;5093538;28;20043;-75
2022/07/03 11:44:08;;;;;;;4.72;1.40;;;20.70;99.90;;;;;;5079963;28;20020;-75
2022/07/03 11:46:36;;;;;;;2.88;1.80;;;20.70;99.90;;;;;;5081498;28;20054;-74
2022/07/03 11:49:13;;;;;;;10.05;1.77;;;20.80;99.90;;;;;;5091402;28;20023;-75
2022/07/03 11:51:53;;;;;;;5.55;2.15;;;20.90;99.90;;;;;;5092215;28;20032;-75
2022/07/03 11:54:21;;;;;;;5.03;1.98;;;21.00;99.90;;;;;;5092970;28;20028;-76
2022/07/03 11:56:47;;;;;;;4.85;2.38;;;21.30;99.90;;;;;;5093607;28;20122;-75
2022/07/03 11:59:13;;;;;;;4.45;2.15;;;21.50;99.90;;;;;;5079282;28;20537;-75
2022/07/03 12:01:39;;;;;;;3.92;1.70;;;21.70;99.90;;;;;;5092836;28;20067;-75
2022/07/03 12:04:04;;;;;;;3.60;2.00;;;21.80;99.90;;;;;;5092821;28;20047;-75
2022/07/03 12:06:37;;;;;;;3.10;1.85;;;22.20;99.90;;;;;;5092848;28;20105;-74
2022/07/03 12:09:14;;;;;;;5.65;2.47;;;22.30;99.90;;;;;;5092571;28;20020;-75
2022/07/03 12:11:40;;;;;;;3.70;1.80;;;22.50;99.90;;;;;;5093411;28;20024;-75
2022/07/03 12:14:05;;;;;;;2.75;1.60;;;22.70;99.90;;;;;;5092917;28;20165;-74
2022/07/03 12:16:34;;;;;;;2.25;1.52;;;22.60;99.90;;;;;;5092681;28;20073;-76
2022/07/03 12:19:05;;;;;;;5.03;1.90;;;22.40;99.90;;;;;;5092891;28;20031;-75
2022/07/03 12:21:38;;;;;;;1.45;1.23;;;22.20;99.90;;;;;;5093250;28;20169;-75
2022/07/03 12:24:12;;;;;;;4.95;1.88;;;22.00;99.90;;;;;;5091985;28;20024;-75
2022/07/03 12:26:39;;;;;;;2.28;1.40;;;21.80;99.90;;;;;;5092413;28;20093;-75
2022/07/03 12:29:10;;;;;;;3.63;1.77;;;21.80;99.90;;;;;;5091429;28;20028;-75
2022/07/03 12:31:43;;;;;;;3.40;1.52;;;22.00;99.90;;;;;;5092556;28;20371;-75
2022/07/03 12:34:10;;;;;;;1.35;1.00;;;22.30;99.90;;;;;;5092825;28;20094;-74
2022/07/03 12:36:36;;;;;;;3.28;1.25;;;22.50;99.90;;;;;;5091297;28;20355;-75
2022/07/03 12:39:02;;;;;;;1.95;1.77;;;22.50;99.90;;;;;;5079118;28;20070;-75
2022/07/03 12:41:28;;;;;;;3.53;1.55;;;22.70;99.90;;;;;;5092563;28;20102;-75
2022/07/03 12:43:57;;;;;;;1.75;0.90;;;22.80;99.90;;;;;;5091327;28;20546;-74
2022/07/03 12:46:25;;;;;;;4.50;1.30;;;22.60;99.50;;;;;;5092854;28;20027;-75
2022/07/03 12:48:53;;;;;;;2.90;1.02;;;22.30;99.40;;;;;;5092366;28;20491;-75
2022/07/03 12:51:43;;;;;;;1.52;1.10;;;22.20;99.90;;;;;;5092190;28;20067;-76
2022/07/03 12:54:15;;;;;;;2.17;1.48;;;22.00;99.90;;;;;;5092200;28;20016;-75
2022/07/03 12:56:43;;;;;;;2.35;0.90;;;21.60;99.90;;;;;;5092689;28;20032;-75
2022/07/03 12:59:25;;;;;;;4.72;1.35;;;21.30;99.90;;;;;;5091665;28;20019;-74
2022/07/03 13:02:06;;;;;;;4.70;1.33;;;20.90;99.90;;;;;;5092002;28;20038;-74
2022/07/03 13:04:33;;;;;;;3.33;1.30;;;20.80;99.90;;;;;;5077062;28;20024;-74
2022/07/03 13:07:16;;;;;;;2.45;1.10;;;20.80;99.90;;;;;;5091195;28;20123;-75
2022/07/03 13:09:43;;;;;;;4.28;1.23;;;21.00;99.90;;;;;;5092481;28;20020;-74
2022/07/03 13:12:22;;;;;;;3.03;1.20;;;21.30;99.90;;;;;;5091872;28;20115;-74